Time;durP1;ratioP1;P1;durP2;ratioP2;P2;SDS_P1;SDS_P2;PMS_P1;PMS_P2;Temp;Humidity;BMP_temperature;BMP_pressure;BME280_temperature;BME280_humidity;BME280_pressure;Samples;Min_cycle;Max_cycle;Signal;HPM_P1;HPM_P2
2022/04/25 00:02:25;;;;;;;24.07;21.53;;;9.80;99.90;;;;;;5071166;28;20850;-66
2022/04/25 00:04:51;;;;;;;33.33;26.37;;;9.20;99.90;;;;;;5070887;28;20630;-67
2022/04/25 00:07:17;;;;;;;29.50;26.30;;;8.90;99.90;;;;;;5071323;28;20185;-67
2022/04/25 00:09:43;;;;;;;31.13;26.20;;;9.00;99.90;;;;;;5070187;28;20174;-66
2022/04/25 00:12:10;;;;;;;27.40;24.57;;;8.90;99.90;;;;;;5068953;28;20173;-68
2022/04/25 00:14:36;;;;;;;26.80;23.90;;;9.00;99.90;;;;;;5071004;28;20166;-66
2022/04/25 00:17:02;;;;;;;29.97;23.30;;;9.00;99.90;;;;;;5070902;28;20255;-66
2022/04/25 00:19:27;;;;;;;37.57;23.90;;;8.90;99.90;;;;;;5071196;28;20185;-66
2022/04/25 00:21:53;;;;;;;25.13;22.17;;;8.90;99.90;;;;;;5069899;28;20659;-66
2022/04/25 00:24:19;;;;;;;23.37;20.07;;;9.00;99.90;;;;;;5071051;28;20293;-66
2022/04/25 00:26:45;;;;;;;23.90;21.40;;;8.90;99.90;;;;;;5069271;28;20202;-66
2022/04/25 00:29:11;;;;;;;24.17;20.37;;;8.90;99.90;;;;;;5070927;28;20173;-66
2022/04/25 00:31:38;;;;;;;23.13;20.73;;;8.90;99.90;;;;;;5071225;28;20312;-67
2022/04/25 00:34:03;;;;;;;20.00;17.70;;;8.90;99.90;;;;;;5071030;28;20212;-67
2022/04/25 00:36:29;;;;;;;21.47;19.23;;;8.80;99.90;;;;;;5070183;28;20236;-66
2022/04/25 00:38:54;;;;;;;23.00;19.87;;;8.90;99.90;;;;;;5071172;28;20178;-66
2022/04/25 00:41:20;;;;;;;19.67;17.03;;;8.90;99.90;;;;;;5070189;28;20185;-67
2022/04/25 00:43:45;;;;;;;19.47;17.37;;;9.00;99.90;;;;;;5075495;28;20159;-66
2022/04/25 00:46:22;;;;;;;20.77;18.60;;;9.00;99.90;;;;;;5074178;28;20206;-67
2022/04/25 00:48:48;;;;;;;19.77;17.60;;;9.20;99.90;;;;;;5075078;28;20170;-67
2022/04/25 00:51:15;;;;;;;17.23;15.47;;;9.20;99.90;;;;;;5074391;28;20273;-66
2022/04/25 00:53:40;;;;;;;15.87;14.37;;;9.10;99.90;;;;;;5054803;28;20238;-68
2022/04/25 00:56:08;;;;;;;15.13;13.73;;;8.90;99.90;;;;;;5054347;28;20198;-65
2022/04/25 00:58:35;;;;;;;15.83;13.87;;;8.80;99.90;;;;;;5068573;28;20178;-66
2022/04/25 01:01:01;;;;;;;14.67;13.17;;;8.70;99.90;;;;;;5074694;28;20233;-66
2022/04/25 01:03:27;;;;;;;14.43;12.43;;;8.50;99.90;;;;;;5074217;28;20178;-66
2022/04/25 01:05:53;;;;;;;14.67;13.27;;;8.40;99.90;;;;;;5074229;28;20205;-67
2022/04/25 01:08:19;;;;;;;12.73;11.57;;;8.40;99.90;;;;;;5074128;28;20167;-66
2022/04/25 01:10:45;;;;;;;13.23;12.03;;;8.30;99.90;;;;;;5074368;28;20193;-66
2022/04/25 01:13:12;;;;;;;15.80;14.27;;;8.20;99.90;;;;;;5074413;28;20248;-67
2022/04/25 01:15:37;;;;;;;15.57;14.00;;;8.20;99.90;;;;;;5073985;28;20222;-66
2022/04/25 01:18:03;;;;;;;15.47;13.47;;;8.30;99.90;;;;;;5073245;28;20214;-67
2022/04/25 01:20:29;;;;;;;16.30;14.50;;;8.20;99.90;;;;;;5073849;28;20647;-66
2022/04/25 01:28:45;;;;;;;13.60;12.50;;;8.10;99.90;;;;;;5074239;28;20253;-67
2022/04/25 01:31:11;;;;;;;13.90;12.20;;;8.20;99.90;;;;;;5073930;28;20686;-66
2022/04/25 01:33:36;;;;;;;13.37;12.03;;;8.20;99.90;;;;;;5074051;28;20162;-67
2022/04/25 01:36:03;;;;;;;13.67;12.27;;;8.30;99.90;;;;;;5072282;28;20222;-67
2022/04/25 01:38:28;;;;;;;12.90;11.70;;;8.30;99.90;;;;;;5073915;28;20170;-67
2022/04/25 01:40:54;;;;;;;13.97;12.50;;;8.40;99.90;;;;;;5072373;28;20239;-67
2022/04/25 01:43:20;;;;;;;13.50;12.30;;;8.30;99.90;;;;;;5073803;28;20249;-67
2022/04/25 01:45:45;;;;;;;14.20;13.00;;;8.30;99.90;;;;;;5071806;28;20597;-67
2022/04/25 01:48:11;;;;;;;14.30;12.57;;;8.30;99.90;;;;;;5073706;28;20193;-66
2022/04/25 01:50:36;;;;;;;13.37;12.20;;;8.30;99.90;;;;;;5072115;28;20177;-67
2022/04/25 01:53:02;;;;;;;14.83;13.30;;;8.20;99.90;;;;;;5072222;28;20251;-66
2022/04/25 01:55:28;;;;;;;14.03;12.83;;;8.10;99.90;;;;;;5072947;28;20194;-68
2022/04/25 01:57:54;;;;;;;16.10;14.43;;;8.10;99.90;;;;;;5073669;28;20178;-67
2022/04/25 02:00:19;;;;;;;17.23;13.33;;;8.20;99.90;;;;;;5073337;28;20174;-67
2022/04/25 02:02:45;;;;;;;15.57;13.97;;;8.10;99.90;;;;;;5073415;28;20249;-67
2022/04/25 02:05:11;;;;;;;15.53;14.07;;;8.10;99.90;;;;;;5072797;28;20244;-66
2022/04/25 02:07:37;;;;;;;15.67;13.90;;;8.00;99.90;;;;;;5073538;28;20167;-66
2022/04/25 02:10:03;;;;;;;15.03;13.63;;;8.00;99.90;;;;;;5071151;28;20323;-67
2022/04/25 02:12:28;;;;;;;16.00;14.33;;;8.00;99.90;;;;;;5073264;28;20185;-67
2022/04/25 02:14:54;;;;;;;16.60;14.90;;;7.90;99.90;;;;;;5071475;28;20635;-65
2022/04/25 02:17:20;;;;;;;16.53;14.83;;;7.90;99.90;;;;;;5073252;28;20174;-69
2022/04/25 02:19:45;;;;;;;15.87;14.37;;;7.80;99.90;;;;;;5073020;28;20186;-67
2022/04/25 02:22:12;;;;;;;17.13;14.77;;;7.80;99.90;;;;;;5073474;28;20248;-69
2022/04/25 02:24:39;;;;;;;17.27;15.47;;;7.80;99.90;;;;;;5074442;28;20727;-69
2022/04/25 02:27:05;;;;;;;18.37;15.50;;;7.80;99.90;;;;;;5073393;28;20603;-69
2022/04/25 02:29:39;;;;;;;20.50;14.93;;;7.80;99.90;;;;;;5074866;28;20178;-71
2022/04/25 02:32:07;;;;;;;17.10;15.27;;;7.80;99.90;;;;;;5074511;28;20217;-72
2022/04/25 02:34:32;;;;;;;17.40;14.97;;;7.80;99.90;;;;;;5074339;28;20178;-71
2022/04/25 02:36:58;;;;;;;17.47;15.30;;;7.80;99.90;;;;;;5074585;28;20194;-70
2022/04/25 02:39:24;;;;;;;17.33;15.53;;;7.80;99.90;;;;;;5074422;28;20174;-71
2022/04/25 02:41:51;;;;;;;19.43;15.73;;;7.80;99.90;;;;;;5055049;28;20175;-69
2022/04/25 02:44:17;;;;;;;22.10;15.87;;;7.80;99.90;;;;;;5054868;28;20683;-72
2022/04/25 02:46:43;;;;;;;20.73;17.40;;;7.80;99.90;;;;;;5073586;28;20225;-71
2022/04/25 02:49:09;;;;;;;20.07;16.30;;;7.80;99.90;;;;;;5074911;28;20227;-71
2022/04/25 02:51:34;;;;;;;20.23;16.83;;;7.80;99.90;;;;;;5073133;28;20266;-72
2022/04/25 02:54:00;;;;;;;22.87;16.97;;;7.80;99.90;;;;;;5074523;28;20534;-70
2022/04/25 02:56:25;;;;;;;24.43;16.50;;;7.70;99.90;;;;;;5074111;28;20205;-71
2022/04/25 02:58:51;;;;;;;19.37;17.37;;;7.70;99.90;;;;;;5074616;28;20185;-71
2022/04/25 03:01:17;;;;;;;23.07;18.53;;;7.70;99.90;;;;;;5074267;28;20178;-73
2022/04/25 03:03:42;;;;;;;23.17;18.53;;;7.70;99.90;;;;;;5073407;28;20261;-71
2022/04/25 03:06:09;;;;;;;25.30;18.07;;;7.80;99.90;;;;;;5072807;28;20303;-72
2022/04/25 03:08:35;;;;;;;23.53;18.87;;;7.80;99.90;;;;;;5072718;28;20180;-68
2022/04/25 03:11:04;;;;;;;28.93;20.03;;;7.70;99.90;;;;;;5072959;28;20266;-70
2022/04/25 03:13:31;;;;;;;24.60;19.23;;;7.80;99.90;;;;;;5073823;28;20196;-69
2022/04/25 03:15:57;;;;;;;23.27;17.63;;;7.70;99.90;;;;;;5073006;28;20623;-71
2022/04/25 03:18:23;;;;;;;24.80;19.90;;;7.70;99.90;;;;;;5073722;28;20170;-69
2022/04/25 03:20:49;;;;;;;24.27;20.03;;;7.60;99.90;;;;;;5073205;28;20178;-68
2022/04/25 03:23:17;;;;;;;28.17;21.70;;;7.60;99.90;;;;;;5072964;28;20205;-71
2022/04/25 03:25:42;;;;;;;27.97;21.43;;;7.60;99.90;;;;;;5071535;28;20270;-72
2022/04/25 03:28:08;;;;;;;25.17;20.53;;;7.50;99.90;;;;;;5073243;28;20172;-70
2022/04/25 03:30:34;;;;;;;29.77;23.63;;;7.60;99.90;;;;;;5073276;28;20172;-70
2022/04/25 03:32:59;;;;;;;28.27;23.07;;;7.60;99.90;;;;;;5072836;28;20192;-69
2022/04/25 03:35:25;;;;;;;28.73;23.10;;;7.80;99.90;;;;;;5073094;28;20562;-70
2022/04/25 03:37:52;;;;;;;29.30;23.10;;;7.90;99.90;;;;;;5073161;28;20205;-68
2022/04/25 03:40:18;;;;;;;29.90;23.70;;;8.00;99.90;;;;;;5073197;28;20170;-69
2022/04/25 03:42:44;;;;;;;29.80;22.97;;;8.10;99.90;;;;;;5072947;28;20182;-70
2022/04/25 03:45:15;;;;;;;30.37;23.10;;;8.20;99.90;;;;;;5073488;28;20788;-71
2022/04/25 03:47:41;;;;;;;29.07;22.27;;;8.10;99.90;;;;;;5071972;28;20266;-73
2022/04/25 03:50:08;;;;;;;28.17;20.20;;;8.10;99.90;;;;;;5073430;28;20635;-71
2022/04/25 03:52:43;;;;;;;29.47;22.50;;;8.00;99.90;;;;;;5073179;28;20162;-73
2022/04/25 03:58:00;;;;;;;28.73;21.87;;;8.00;99.90;;;;;;5071646;28;20292;-66
2022/04/25 04:00:26;;;;;;;29.33;22.73;;;8.00;99.90;;;;;;5070172;28;20223;-66
2022/04/25 04:02:52;;;;;;;32.00;23.53;;;7.90;99.90;;;;;;5071271;28;20201;-66
2022/04/25 04:05:18;;;;;;;34.87;24.10;;;8.00;99.90;;;;;;5070997;28;20216;-65
2022/04/25 04:07:44;;;;;;;34.17;24.70;;;8.00;99.90;;;;;;5071243;28;20632;-66
2022/04/25 04:10:10;;;;;;;34.33;24.77;;;7.90;99.90;;;;;;5070015;28;20193;-66
2022/04/25 04:12:36;;;;;;;32.97;22.97;;;7.90;99.90;;;;;;5071418;28;20197;-66
2022/04/25 04:15:03;;;;;;;32.50;23.40;;;7.90;99.90;;;;;;5070578;28;20248;-65
2022/04/25 04:17:29;;;;;;;28.70;22.73;;;7.90;99.90;;;;;;5071339;28;20172;-66
2022/04/25 04:19:54;;;;;;;31.20;24.77;;;7.90;99.90;;;;;;5071138;28;20635;-66
2022/04/25 04:22:29;;;;;;;29.70;24.03;;;7.90;99.90;;;;;;5071222;28;20650;-65
2022/04/25 04:25:03;;;;;;;30.43;24.10;;;7.80;99.90;;;;;;5070466;28;20201;-65
2022/04/25 04:27:32;;;;;;;36.07;25.40;;;7.90;99.90;;;;;;5070982;28;20182;-65
2022/04/25 04:30:00;;;;;;;37.27;28.10;;;7.90;99.90;;;;;;5071107;28;20238;-65
2022/04/25 04:32:29;;;;;;;36.37;26.73;;;7.80;99.90;;;;;;5070825;28;20174;-65
2022/04/25 04:34:54;;;;;;;35.87;27.97;;;7.80;99.90;;;;;;5070640;28;20190;-66
2022/04/25 04:37:20;;;;;;;37.53;27.73;;;7.80;99.90;;;;;;5070828;28;20213;-66
2022/04/25 04:39:46;;;;;;;37.67;28.23;;;7.80;99.90;;;;;;5069852;28;20182;-65
2022/04/25 04:42:11;;;;;;;36.70;27.20;;;7.70;99.90;;;;;;5070750;28;20186;-66
2022/04/25 04:44:37;;;;;;;34.43;24.73;;;7.60;99.90;;;;;;5069372;28;20210;-66
2022/04/25 04:47:03;;;;;;;42.77;27.97;;;7.60;99.90;;;;;;5069108;28;20343;-66
2022/04/25 04:49:29;;;;;;;41.53;29.47;;;7.70;99.90;;;;;;5070949;28;20171;-65
2022/04/25 04:51:54;;;;;;;39.27;28.00;;;7.80;99.90;;;;;;5069354;28;20269;-66
2022/04/25 04:54:20;;;;;;;39.07;26.70;;;7.80;99.90;;;;;;5069434;28;20489;-65
2022/04/25 04:56:46;;;;;;;42.73;28.07;;;8.00;99.90;;;;;;5070600;28;20235;-66
2022/04/25 04:59:11;;;;;;;40.37;26.47;;;8.20;99.90;;;;;;5068949;28;20178;-66
2022/04/25 05:01:38;;;;;;;39.17;26.10;;;8.20;99.90;;;;;;5070921;28;20251;-67
2022/04/25 05:04:04;;;;;;;38.83;27.23;;;8.20;99.90;;;;;;5070730;28;20171;-66
2022/04/25 05:06:30;;;;;;;34.60;24.63;;;8.10;99.90;;;;;;5070386;28;20240;-66
2022/04/25 05:08:55;;;;;;;41.17;25.63;;;8.20;99.90;;;;;;5069895;28;20264;-67
2022/04/25 05:11:21;;;;;;;36.50;26.33;;;8.10;99.90;;;;;;5069151;28;20623;-66
2022/04/25 05:13:48;;;;;;;36.30;26.53;;;8.20;99.90;;;;;;5070475;28;20175;-66
2022/04/25 05:16:14;;;;;;;36.43;25.43;;;8.30;99.90;;;;;;5070330;28;20204;-67
2022/04/25 05:18:40;;;;;;;36.23;25.77;;;8.40;99.90;;;;;;5069227;28;20178;-66
2022/04/25 05:21:06;;;;;;;42.13;27.37;;;8.40;99.90;;;;;;5070615;28;20515;-67
2022/04/25 05:23:31;;;;;;;38.10;27.37;;;8.40;99.90;;;;;;5070487;28;20189;-67
2022/04/25 05:25:58;;;;;;;39.90;27.07;;;8.40;99.90;;;;;;5070279;28;20205;-65
2022/04/25 05:28:25;;;;;;;36.77;26.97;;;8.40;99.90;;;;;;5072426;28;20185;-68
2022/04/25 05:30:51;;;;;;;37.73;29.40;;;8.50;99.90;;;;;;5072925;28;20243;-66
2022/04/25 05:33:18;;;;;;;39.93;28.33;;;8.50;99.90;;;;;;5073830;28;20174;-67
2022/04/25 05:35:44;;;;;;;41.33;25.83;;;8.60;99.90;;;;;;5073830;28;20235;-67
2022/04/25 05:38:11;;;;;;;39.03;26.60;;;8.60;99.90;;;;;;5073740;28;20193;-66
2022/04/25 05:40:37;;;;;;;34.77;24.17;;;8.60;99.90;;;;;;5074068;28;20749;-67
2022/04/25 05:43:04;;;;;;;34.13;24.13;;;8.60;99.90;;;;;;5073663;28;20178;-66
2022/04/25 05:45:30;;;;;;;33.03;24.30;;;8.70;99.90;;;;;;5073358;28;20225;-67
2022/04/25 05:47:57;;;;;;;36.33;24.83;;;8.80;99.90;;;;;;5069284;28;20202;-66
2022/04/25 05:53:09;;;;;;;37.67;25.60;;;9.20;99.90;;;;;;5071790;28;20240;-66
2022/04/25 05:55:36;;;;;;;32.33;24.37;;;9.60;99.90;;;;;;5073292;28;20217;-66
2022/04/25 05:58:02;;;;;;;30.63;23.03;;;9.80;99.90;;;;;;5073450;28;20181;-65
2022/04/25 06:00:30;;;;;;;33.50;24.37;;;10.10;99.90;;;;;;5072156;28;20178;-65
2022/04/25 06:02:56;;;;;;;28.20;21.53;;;10.40;99.90;;;;;;5073370;28;20166;-65
2022/04/25 06:05:23;;;;;;;25.83;22.20;;;10.80;99.90;;;;;;5072817;28;20288;-65
2022/04/25 06:07:50;;;;;;;21.90;19.07;;;11.10;99.90;;;;;;5073160;28;20640;-66
2022/04/25 06:10:18;;;;;;;22.20;18.63;;;11.20;99.90;;;;;;5072779;28;20170;-65
2022/04/25 06:12:50;;;;;;;20.07;17.97;;;11.30;99.90;;;;;;5072580;28;20192;-66
2022/04/25 06:15:17;;;;;;;17.87;16.03;;;11.60;99.90;;;;;;5052666;28;20198;-66
2022/04/25 06:17:43;;;;;;;15.33;13.80;;;11.70;99.90;;;;;;5053259;28;20170;-66
2022/04/25 06:20:09;;;;;;;14.67;13.27;;;11.80;99.90;;;;;;5072509;28;20328;-65
2022/04/25 06:22:36;;;;;;;14.27;12.97;;;11.80;99.90;;;;;;5072266;28;20170;-66
2022/04/25 06:25:03;;;;;;;13.60;12.20;;;11.60;99.90;;;;;;5072227;28;20259;-65
2022/04/25 06:27:28;;;;;;;14.37;13.07;;;11.50;99.90;;;;;;5072777;28;20624;-66
2022/04/25 06:29:54;;;;;;;14.60;13.30;;;11.50;99.90;;;;;;5072689;28;20185;-66
2022/04/25 06:32:20;;;;;;;15.00;13.50;;;11.30;99.90;;;;;;5072852;28;20216;-66
2022/04/25 06:34:49;;;;;;;15.00;13.60;;;11.10;99.90;;;;;;5073850;28;20205;-66
2022/04/25 06:37:18;;;;;;;14.97;13.57;;;10.90;99.90;;;;;;5071463;28;20182;-65
2022/04/25 06:39:44;;;;;;;15.67;14.17;;;10.90;99.90;;;;;;5071542;28;20182;-65
2022/04/25 06:42:09;;;;;;;22.23;16.00;;;11.00;99.90;;;;;;5072815;28;20177;-65
2022/04/25 06:44:36;;;;;;;15.67;14.17;;;11.00;99.90;;;;;;5072111;28;20206;-65
2022/04/25 06:47:02;;;;;;;16.63;14.93;;;10.90;99.90;;;;;;5071594;28;20214;-65
2022/04/25 06:49:28;;;;;;;16.03;14.40;;;10.90;99.90;;;;;;5072405;28;20595;-66
2022/04/25 06:51:58;;;;;;;17.23;15.60;;;11.00;99.90;;;;;;5072629;28;20317;-65
2022/04/25 06:54:28;;;;;;;16.67;15.00;;;10.90;99.90;;;;;;5060703;28;20178;-65
2022/04/25 06:56:55;;;;;;;16.70;15.00;;;11.00;99.90;;;;;;5072317;28;20198;-65
2022/04/25 06:59:22;;;;;;;16.57;14.97;;;10.90;99.90;;;;;;5071767;28;20560;-65
2022/04/25 07:01:49;;;;;;;17.30;15.70;;;11.00;99.90;;;;;;5071161;28;20180;-65
2022/04/25 07:04:16;;;;;;;17.17;15.37;;;11.10;99.90;;;;;;5071845;28;20619;-65
2022/04/25 07:06:45;;;;;;;16.80;15.10;;;11.20;99.90;;;;;;5072000;28;20194;-65
2022/04/25 07:09:13;;;;;;;16.03;14.40;;;11.40;99.90;;;;;;5071722;28;20249;-65
2022/04/25 07:11:41;;;;;;;15.93;14.17;;;11.50;99.90;;;;;;5072284;28;20239;-65
2022/04/25 07:14:06;;;;;;;14.70;13.23;;;11.70;99.90;;;;;;5071690;28;20269;-65
2022/04/25 07:16:32;;;;;;;15.33;13.93;;;11.80;99.90;;;;;;5071155;28;20276;-65
2022/04/25 07:18:58;;;;;;;13.87;12.47;;;11.80;99.90;;;;;;5064309;28;20179;-65
2022/04/25 07:29:36;;;;;;;14.37;13.00;;;12.20;99.90;;;;;;5071854;28;20266;-65
2022/04/25 07:32:01;;;;;;;13.67;12.37;;;12.30;99.90;;;;;;5071662;28;20218;-65
2022/04/25 07:34:27;;;;;;;13.50;12.20;;;12.20;99.90;;;;;;5071593;28;20166;-65
2022/04/25 07:36:53;;;;;;;13.77;12.37;;;12.20;99.90;;;;;;5069969;28;20675;-65
2022/04/25 07:39:20;;;;;;;14.23;12.53;;;12.20;99.90;;;;;;5071404;28;20162;-65
2022/04/25 07:41:46;;;;;;;14.00;12.70;;;12.50;99.90;;;;;;5071309;28;20174;-65
2022/04/25 07:44:12;;;;;;;13.77;12.47;;;12.60;99.90;;;;;;5071052;28;20212;-65
2022/04/25 07:46:40;;;;;;;14.00;12.60;;;12.50;99.90;;;;;;5070943;28;20213;-66
2022/04/25 07:49:07;;;;;;;13.33;12.03;;;12.40;99.90;;;;;;5071458;28;20162;-65
2022/04/25 07:51:33;;;;;;;14.77;13.27;;;12.10;99.90;;;;;;5071245;28;20174;-65
2022/04/25 07:53:59;;;;;;;14.97;13.53;;;12.00;99.90;;;;;;5071728;28;20589;-65
2022/04/25 07:56:26;;;;;;;15.27;13.77;;;12.10;99.90;;;;;;5070718;28;20630;-65
2022/04/25 07:58:52;;;;;;;15.00;13.60;;;12.20;99.90;;;;;;5071625;28;20170;-64
2022/04/25 08:01:17;;;;;;;15.30;13.87;;;12.20;99.90;;;;;;5071023;28;20552;-65
2022/04/25 08:03:43;;;;;;;15.03;13.60;;;12.30;99.90;;;;;;5067578;28;20608;-65
2022/04/25 08:06:08;;;;;;;15.33;13.83;;;12.40;99.90;;;;;;5050834;28;20206;-65
2022/04/25 08:08:34;;;;;;;15.27;13.83;;;12.40;99.90;;;;;;5064938;28;20520;-66
2022/04/25 08:11:00;;;;;;;14.07;12.87;;;12.60;99.90;;;;;;5071239;28;20202;-66
2022/04/25 08:18:54;;;;;;;12.63;11.53;;;13.10;99.90;;;;;;5071320;28;20184;-65
2022/04/25 08:21:19;;;;;;;12.83;11.73;;;13.10;99.90;;;;;;5070889;28;20643;-64
2022/04/25 08:23:45;;;;;;;12.60;11.30;;;13.30;99.90;;;;;;5071064;28;20547;-64
2022/04/25 08:26:12;;;;;;;11.70;10.70;;;13.50;99.90;;;;;;5070587;28;20301;-65
2022/04/25 08:28:37;;;;;;;13.13;11.87;;;13.70;99.90;;;;;;5069567;28;20177;-65
2022/04/25 08:31:03;;;;;;;11.93;10.87;;;13.90;99.90;;;;;;5071099;28;20170;-65
2022/04/25 08:33:30;;;;;;;12.90;11.80;;;13.90;99.90;;;;;;5070781;28;20564;-65
2022/04/25 08:35:57;;;;;;;12.50;11.43;;;13.90;99.90;;;;;;5070776;28;20737;-64
2022/04/25 08:38:23;;;;;;;11.37;10.23;;;14.00;99.90;;;;;;5070814;28;20555;-65
2022/04/25 08:40:50;;;;;;;12.70;11.67;;;14.10;99.90;;;;;;5070951;28;20185;-65
2022/04/25 08:43:16;;;;;;;11.37;10.37;;;14.20;99.90;;;;;;5069852;28;20257;-65
2022/04/25 08:45:42;;;;;;;11.33;10.33;;;14.40;99.90;;;;;;5070551;28;20401;-65
2022/04/25 08:48:09;;;;;;;10.90;10.00;;;14.50;99.90;;;;;;5070187;28;20174;-65
2022/04/25 08:50:37;;;;;;;11.17;10.27;;;14.90;99.90;;;;;;5069456;28;20174;-64
2022/04/25 08:53:05;;;;;;;11.03;10.13;;;15.20;99.90;;;;;;5070416;28;20547;-65
2022/04/25 08:55:31;;;;;;;10.33;9.40;;;15.20;99.90;;;;;;5062893;28;20198;-65
2022/04/25 08:57:59;;;;;;;11.53;10.63;;;15.20;99.90;;;;;;5050978;28;20548;-65
2022/04/25 09:00:25;;;;;;;10.63;9.83;;;15.30;99.90;;;;;;5051736;28;20186;-65
2022/04/25 09:02:51;;;;;;;8.53;7.83;;;15.40;99.90;;;;;;5072469;28;20206;-65
2022/04/25 09:05:18;;;;;;;9.57;8.87;;;15.40;99.90;;;;;;5073807;28;20289;-65
2022/04/25 09:07:44;;;;;;;8.10;7.50;;;15.70;99.90;;;;;;5073242;28;20174;-65
2022/04/25 09:10:17;;;;;;;8.70;7.90;;;16.10;99.90;;;;;;5074444;28;20166;-65
2022/04/25 09:12:46;;;;;;;8.47;7.87;;;16.20;99.90;;;;;;5074393;28;20181;-65
2022/04/25 09:15:12;;;;;;;7.67;7.07;;;16.30;99.90;;;;;;5073591;28;20267;-65
2022/04/25 09:17:38;;;;;;;7.20;6.60;;;16.80;99.90;;;;;;5074351;28;20178;-65
2022/04/25 09:20:08;;;;;;;6.80;6.30;;;17.10;99.90;;;;;;5074511;28;20708;-65
2022/04/25 09:22:36;;;;;;;8.53;7.73;;;17.20;99.90;;;;;;5074007;28;20174;-65
2022/04/25 09:25:16;;;;;;;7.93;7.33;;;16.80;99.90;;;;;;5073876;28;20651;-65
2022/04/25 09:27:43;;;;;;;8.33;7.63;;;17.00;99.90;;;;;;5054462;28;20636;-65
2022/04/25 09:30:22;;;;;;;7.73;7.13;;;17.10;99.90;;;;;;5054136;28;20167;-64
2022/04/25 09:32:52;;;;;;;8.57;7.87;;;17.60;99.90;;;;;;5054486;28;20587;-65
2022/04/25 09:35:37;;;;;;;8.33;7.67;;;18.30;99.90;;;;;;5054189;28;20571;-65
2022/04/25 09:38:08;;;;;;;8.00;7.23;;;18.90;99.90;;;;;;5074101;28;20178;-64
2022/04/25 09:40:38;;;;;;;8.20;7.50;;;19.00;99.90;;;;;;5073769;28;20178;-64
2022/04/25 09:43:08;;;;;;;8.57;7.87;;;19.00;99.90;;;;;;5073946;28;20178;-65
2022/04/25 09:45:37;;;;;;;8.47;7.73;;;18.80;99.90;;;;;;5092825;22;20237;-67
2022/04/25 09:48:12;;;;;;;7.57;6.90;;;18.80;99.90;;;;;;5097522;28;20196;-66
2022/04/25 09:50:38;;;;;;;8.17;7.57;;;18.70;99.90;;;;;;5079824;28;20196;-67
2022/04/25 09:53:05;;;;;;;8.17;7.57;;;18.50;99.90;;;;;;5078611;28;20179;-67
2022/04/25 09:55:36;;;;;;;7.67;6.97;;;18.40;99.90;;;;;;5062398;28;20207;-67
2022/04/25 09:58:19;;;;;;;8.43;7.67;;;17.90;99.90;;;;;;5037917;28;20190;-67
2022/04/25 10:00:45;;;;;;;7.80;7.10;;;18.10;99.90;;;;;;5037642;28;20179;-67
2022/04/25 10:03:12;;;;;;;6.97;6.47;;;18.70;99.90;;;;;;5055083;28;20267;-67
2022/04/25 10:05:44;;;;;;;7.33;6.77;;;19.20;99.90;;;;;;5054869;28;20256;-67
2022/04/25 10:08:11;;;;;;;8.23;7.40;;;19.00;99.90;;;;;;5035418;28;20584;-67
2022/04/25 10:10:49;;;;;;;8.40;7.57;;;18.80;99.90;;;;;;5037172;28;20175;-67
2022/04/25 10:13:15;;;;;;;8.30;7.60;;;18.70;99.90;;;;;;5036369;28;20182;-67
2022/04/25 10:15:42;;;;;;;8.40;7.70;;;18.70;99.90;;;;;;5054127;28;20202;-67
2022/04/25 10:18:09;;;;;;;8.17;7.47;;;18.90;99.90;;;;;;5036735;28;20183;-67
2022/04/25 10:20:36;;;;;;;8.20;7.40;;;19.20;99.90;;;;;;5054194;28;20599;-67
2022/04/25 10:23:06;;;;;;;8.10;7.40;;;19.00;99.90;;;;;;5054138;28;20644;-66
2022/04/25 10:25:32;;;;;;;7.87;6.97;;;18.60;99.90;;;;;;5053825;28;20211;-66
2022/04/25 10:28:02;;;;;;;7.57;6.97;;;18.40;99.90;;;;;;5054325;28;20187;-66
2022/04/25 10:30:36;;;;;;;8.50;7.80;;;18.60;99.90;;;;;;5054115;28;20170;-66
2022/04/25 10:33:17;;;;;;;9.27;8.47;;;18.90;99.90;;;;;;5054070;28;20190;-67
2022/04/25 10:35:44;;;;;;;8.33;7.73;;;19.50;99.90;;;;;;5035385;28;20202;-66
2022/04/25 10:44:18;;;;;;;11.27;10.27;;;18.20;99.90;;;;;;5052470;28;20232;-67
2022/04/25 10:47:03;;;;;;;11.67;10.67;;;17.90;99.90;;;;;;5052278;28;20237;-66
2022/04/25 10:49:31;;;;;;;14.33;12.90;;;17.40;99.90;;;;;;5052861;28;20246;-66
2022/04/25 10:51:58;;;;;;;15.57;14.10;;;17.20;99.90;;;;;;5052655;28;20171;-66
2022/04/25 10:54:27;;;;;;;16.10;14.70;;;17.20;99.90;;;;;;5034595;28;20683;-66
2022/04/25 10:57:07;;;;;;;16.40;14.93;;;17.10;99.90;;;;;;5052395;28;20676;-66
2022/04/25 10:59:33;;;;;;;15.67;14.27;;;17.00;99.90;;;;;;5052262;28;20228;-67
2022/04/25 11:01:59;;;;;;;16.47;15.17;;;16.80;99.90;;;;;;5052424;28;20187;-67
2022/04/25 11:04:25;;;;;;;12.07;10.97;;;17.20;99.90;;;;;;5052268;28;20262;-66
2022/04/25 11:07:21;;;;;;;12.03;11.03;;;17.90;99.90;;;;;;5052125;28;20586;-67
2022/04/25 11:09:47;;;;;;;10.43;9.43;;;19.00;99.90;;;;;;5034482;28;20170;-67
2022/04/25 11:12:12;;;;;;;10.48;9.52;;;20.10;99.90;;;;;;5051832;28;20185;-67
2022/04/25 11:14:57;;;;;;;9.80;8.85;;;21.10;99.90;;;;;;5033788;28;20197;-67
2022/04/25 11:17:23;;;;;;;10.10;9.20;;;21.60;99.90;;;;;;5052518;28;20190;-67
2022/04/25 11:19:51;;;;;;;10.18;9.18;;;22.40;99.90;;;;;;5051966;28;20178;-67
2022/04/25 11:22:41;;;;;;;11.75;10.65;;;23.00;99.90;;;;;;5052000;28;20224;-64
2022/04/25 11:25:35;;;;;;;10.65;9.65;;;23.40;99.90;;;;;;5050744;28;20202;-67
2022/04/25 11:28:02;;;;;;;11.15;9.63;;;23.60;99.90;;;;;;5049308;28;20183;-67
2022/04/25 11:30:27;;;;;;;12.40;11.30;;;23.10;99.90;;;;;;5051477;28;20267;-67
2022/04/25 11:33:01;;;;;;;11.43;10.35;;;22.80;99.90;;;;;;5051963;28;20206;-67
2022/04/25 11:35:27;;;;;;;11.35;10.35;;;22.70;99.90;;;;;;5050942;28;20206;-67
2022/04/25 11:37:56;;;;;;;11.90;10.80;;;22.80;99.90;;;;;;5052094;28;20666;-67
2022/04/25 11:40:23;;;;;;;12.68;10.10;;;23.20;99.90;;;;;;5033666;28;20187;-66
2022/04/25 11:42:49;;;;;;;12.20;11.07;;;22.70;99.90;;;;;;5051940;28;20220;-67
2022/04/25 11:45:14;;;;;;;12.98;11.60;;;22.70;99.90;;;;;;5050515;28;20631;-67
2022/04/25 11:47:40;;;;;;;12.23;11.02;;;22.80;99.90;;;;;;5034111;28;20171;-67
2022/04/25 11:50:12;;;;;;;11.32;10.32;;;23.20;99.90;;;;;;5033581;28;20662;-67
2022/04/25 11:52:49;;;;;;;12.43;10.68;;;22.90;99.90;;;;;;5034168;28;20716;-66
2022/04/25 11:55:30;;;;;;;11.13;10.13;;;22.90;99.90;;;;;;5051095;28;20182;-66
2022/04/25 11:57:56;;;;;;;11.00;9.93;;;22.50;99.90;;;;;;5034146;28;20553;-66
2022/04/25 12:00:22;;;;;;;11.50;10.43;;;22.50;99.90;;;;;;5051455;28;20185;-67
2022/04/25 12:02:47;;;;;;;12.48;11.27;;;22.90;99.90;;;;;;5051750;28;20190;-67
2022/04/25 12:05:25;;;;;;;11.70;10.60;;;22.50;99.90;;;;;;5032884;28;20679;-66
2022/04/25 12:16:04;;;;;;;11.85;10.80;;;19.80;99.90;;;;;;5051257;28;20618;-66
2022/04/25 12:18:32;;;;;;;11.70;10.57;;;20.30;99.90;;;;;;5050896;28;20179;-67
2022/04/25 12:21:05;;;;;;;11.95;10.73;;;20.50;99.90;;;;;;5051468;28;20171;-67
2022/04/25 12:23:33;;;;;;;12.35;11.25;;;20.30;99.90;;;;;;5050694;28;20586;-66
2022/04/25 12:26:03;;;;;;;12.10;10.80;;;20.30;99.90;;;;;;5050939;28;20198;-66
2022/04/25 12:28:32;;;;;;;12.90;11.70;;;19.60;99.90;;;;;;5032915;28;20526;-66
2022/04/25 12:31:08;;;;;;;15.40;14.10;;;19.30;99.90;;;;;;5051241;28;20182;-66
2022/04/25 12:33:35;;;;;;;14.47;13.30;;;18.80;99.90;;;;;;5050787;28;20200;-66
2022/04/25 12:36:08;;;;;;;13.20;11.80;;;18.60;99.90;;;;;;5050951;28;20194;-67
2022/04/25 12:38:35;;;;;;;13.27;11.97;;;18.40;99.90;;;;;;5054942;28;20174;-66
2022/04/25 12:41:01;;;;;;;17.43;16.03;;;18.20;99.90;;;;;;5037246;28;20484;-66
2022/04/25 12:43:55;;;;;;;16.30;14.77;;;18.00;99.90;;;;;;5036673;28;20190;-66
2022/04/25 12:46:36;;;;;;;12.53;11.33;;;17.80;99.90;;;;;;5051355;28;20280;-66
2022/04/25 12:49:02;;;;;;;14.67;13.23;;;17.50;99.90;;;;;;5054394;28;20178;-66
2022/04/25 12:51:29;;;;;;;13.17;12.07;;;17.30;99.90;;;;;;5054632;28;20178;-66
2022/04/25 12:53:55;;;;;;;14.47;13.37;;;17.30;99.90;;;;;;5054748;28;20546;-66
2022/04/25 12:56:26;;;;;;;13.63;12.33;;;17.40;99.90;;;;;;5054245;28;20202;-66
2022/04/25 12:58:52;;;;;;;11.93;10.07;;;17.50;99.90;;;;;;5054348;28;20178;-66
2022/04/25 13:01:31;;;;;;;15.00;13.70;;;17.70;99.90;;;;;;5054386;28;20569;-66
2022/04/25 13:04:23;;;;;;;14.23;12.93;;;17.70;99.90;;;;;;5054609;28;20706;-66
2022/04/25 13:06:48;;;;;;;12.60;11.43;;;17.30;99.90;;;;;;5049290;28;20290;-66
2022/04/25 13:09:15;;;;;;;13.73;12.63;;;17.20;99.90;;;;;;5054490;28;20215;-66
2022/04/25 13:11:42;;;;;;;17.13;15.73;;;17.30;99.90;;;;;;5035618;28;20170;-66
2022/04/25 13:14:08;;;;;;;20.70;19.10;;;17.00;99.90;;;;;;5036773;28;20541;-66
2022/04/25 13:16:33;;;;;;;25.10;23.20;;;16.90;99.90;;;;;;5054132;28;20199;-66